createdAt,value
2024-04-12T00:02:13.925Z,6.90
2024-04-12T00:04:44.203Z,7.20
2024-04-12T00:07:17.932Z,6.78
2024-04-12T00:09:55.721Z,7.32
2024-04-12T00:12:29.628Z,7.15
2024-04-12T00:15:18.491Z,6.90
2024-04-12T00:17:49.393Z,7.20
2024-04-12T00:20:22.586Z,7.13
2024-04-12T00:22:57.161Z,6.88
2024-04-12T00:25:26.051Z,7.20
2024-04-12T00:27:55.732Z,7.43
2024-04-12T00:30:39.665Z,6.63
2024-04-12T00:33:11.909Z,6.20
2024-04-12T00:35:47.850Z,6.85
2024-04-12T00:38:18.065Z,6.75
2024-04-12T00:40:48.002Z,7.38
2024-04-12T00:43:20.041Z,7.32
2024-04-12T00:45:50.564Z,7.13
2024-04-12T00:48:22.733Z,7.20
2024-04-12T00:50:55.155Z,6.72
2024-04-12T00:53:23.930Z,6.85
2024-04-12T00:56:01.882Z,7.35
2024-04-12T00:58:34.608Z,6.82
2024-04-12T01:03:48.948Z,7.45
2024-04-12T01:06:18.312Z,7.15
2024-04-12T01:08:47.394Z,6.50
2024-04-12T01:11:16.903Z,7.00
2024-04-12T01:13:44.929Z,6.70
2024-04-12T01:16:13.355Z,6.03
2024-04-12T01:18:44.058Z,6.60
2024-04-12T01:21:12.928Z,6.22
2024-04-12T01:23:45.971Z,6.90
2024-04-12T01:26:17.083Z,6.20
2024-04-12T01:28:45.712Z,6.60
2024-04-12T01:31:17.114Z,6.30
2024-04-12T01:33:54.424Z,6.45
2024-04-12T01:36:24.322Z,6.65
2024-04-12T01:38:58.697Z,6.40
2024-04-12T01:41:34.061Z,5.53
2024-04-12T01:44:08.055Z,5.40
2024-04-12T01:46:37.452Z,5.65
2024-04-12T01:49:12.349Z,5.50
2024-04-12T01:51:43.563Z,5.80
2024-04-12T01:54:23.263Z,5.53
2024-04-12T01:56:52.231Z,6.30
2024-04-12T01:59:24.565Z,6.05
2024-04-12T02:01:54.747Z,5.43
2024-04-12T02:04:23.754Z,5.70
2024-04-12T02:06:52.995Z,5.13
2024-04-12T02:09:22.057Z,5.00
2024-04-12T02:11:55.143Z,6.07
2024-04-12T02:14:24.110Z,5.35
2024-04-12T02:16:52.691Z,5.28
2024-04-12T02:19:23.613Z,4.97
2024-04-12T02:21:55.197Z,5.03
2024-04-12T02:24:23.315Z,5.05
2024-04-12T02:26:51.881Z,4.97
2024-04-12T02:29:23.212Z,4.93
2024-04-12T02:31:52.529Z,4.50
2024-04-12T02:34:20.734Z,4.97
2024-04-12T02:36:49.641Z,5.43
2024-04-12T02:39:24.051Z,5.10
2024-04-12T02:41:52.565Z,4.90
2024-04-12T02:44:20.923Z,4.50
2024-04-12T02:46:49.332Z,4.68
2024-04-12T02:49:17.441Z,5.07
2024-04-12T02:51:49.146Z,4.30
2024-04-12T02:54:18.263Z,5.03
2024-04-12T02:56:46.729Z,4.60
2024-04-12T02:59:15.654Z,4.30
2024-04-12T03:01:45.390Z,5.30
2024-04-12T03:04:13.684Z,4.78
2024-04-12T03:06:42.029Z,5.10
2024-04-12T03:09:12.717Z,5.53
2024-04-12T03:11:42.145Z,5.20
2024-04-12T03:14:11.782Z,5.43
2024-04-12T03:16:48.225Z,4.50
2024-04-12T03:19:17.504Z,4.50
2024-04-12T03:21:52.793Z,4.50
2024-04-12T03:24:21.399Z,5.05
2024-04-12T03:26:50.664Z,4.95
2024-04-12T03:29:19.015Z,4.90
2024-04-12T03:31:49.075Z,4.10
2024-04-12T03:34:17.701Z,4.85
2024-04-12T03:36:48.717Z,4.90
2024-04-12T03:39:22.730Z,4.97
2024-04-12T03:41:59.151Z,4.55
2024-04-12T03:44:33.840Z,4.88
2024-04-12T03:47:11.142Z,4.88
2024-04-12T03:49:43.867Z,4.65
2024-04-12T03:52:16.616Z,5.30
2024-04-12T03:54:49.741Z,4.82
2024-04-12T03:57:18.798Z,5.00
2024-04-12T03:59:47.503Z,5.40
2024-04-12T04:02:20.783Z,4.97
2024-04-12T04:04:53.603Z,5.18
2024-04-12T04:07:24.197Z,5.03
2024-04-12T04:09:52.813Z,4.95
2024-04-12T04:12:22.832Z,4.75
2024-04-12T04:14:52.594Z,4.88
2024-04-12T04:17:32.345Z,5.55
2024-04-12T04:20:09.070Z,5.20
2024-04-12T04:22:38.345Z,5.82
2024-04-12T04:25:10.578Z,5.75
2024-04-12T04:27:40.293Z,5.63
2024-04-12T04:30:09.114Z,5.43
2024-04-12T04:32:38.379Z,5.97
2024-04-12T04:35:07.279Z,4.90
2024-04-12T04:37:39.518Z,5.40
2024-04-12T04:40:18.986Z,5.95
2024-04-12T04:42:51.721Z,6.07
2024-04-12T04:45:23.631Z,6.60
2024-04-12T04:47:53.107Z,5.80
2024-04-12T04:50:22.767Z,6.15
2024-04-12T04:52:52.949Z,5.85
2024-04-12T04:55:21.212Z,5.00
2024-04-12T04:57:57.076Z,4.78
2024-04-12T05:00:26.326Z,5.40
2024-04-12T05:02:56.880Z,5.03
2024-04-12T05:05:29.537Z,4.60
2024-04-12T05:08:04.207Z,4.60
2024-04-12T05:10:36.775Z,4.95
2024-04-12T05:13:08.083Z,4.75
2024-04-12T05:15:42.817Z,4.55
2024-04-12T05:18:15.210Z,4.57
2024-04-12T05:20:45.361Z,4.82
2024-04-12T05:23:20.051Z,4.85
2024-04-12T05:25:49.179Z,5.30
2024-04-12T05:28:20.842Z,5.78
2024-04-12T05:30:52.483Z,5.15
2024-04-12T05:33:24.524Z,6.22
2024-04-12T05:35:53.718Z,5.93
2024-04-12T05:38:23.184Z,5.65
2024-04-12T05:40:55.403Z,5.75
2024-04-12T05:43:24.474Z,5.70
2024-04-12T05:45:55.347Z,6.05
2024-04-12T05:48:26.086Z,5.78
2024-04-12T05:50:57.202Z,6.15
2024-04-12T05:53:32.534Z,6.97
2024-04-12T05:56:21.983Z,6.30
2024-04-12T05:58:53.575Z,7.00
2024-04-12T06:01:27.076Z,6.38
2024-04-12T06:03:56.759Z,7.07
2024-04-12T06:06:25.762Z,7.28
2024-04-12T06:08:55.663Z,6.70
2024-04-12T06:11:26.735Z,6.10
2024-04-12T06:13:56.742Z,5.82
2024-04-12T06:16:25.769Z,6.47
2024-04-12T06:18:54.662Z,5.95
2024-04-12T06:21:24.016Z,6.47
2024-04-12T06:23:57.002Z,7.60
2024-04-12T06:26:25.850Z,5.90
2024-04-12T06:28:59.206Z,5.53
2024-04-12T06:31:36.571Z,5.32
2024-04-12T06:34:06.596Z,5.00
2024-04-12T06:36:35.873Z,5.40
2024-04-12T06:39:06.625Z,5.30
2024-04-12T06:41:35.231Z,5.90
2024-04-12T06:44:04.935Z,5.65
2024-04-12T06:46:37.532Z,6.22
2024-04-12T06:49:15.803Z,5.80
2024-04-12T06:52:02.533Z,5.80
2024-04-12T06:54:37.509Z,5.57
2024-04-12T06:57:10.669Z,5.30
2024-04-12T06:59:45.373Z,5.72
2024-04-12T07:02:15.666Z,5.90
2024-04-12T07:04:44.476Z,5.30
2024-04-12T07:07:14.217Z,5.40
2024-04-12T07:09:47.258Z,5.75
2024-04-12T07:12:15.496Z,5.28
2024-04-12T07:14:47.716Z,5.15
2024-04-12T07:17:22.357Z,5.25
2024-04-12T07:19:55.137Z,5.03
2024-04-12T07:22:28.392Z,5.13
2024-04-12T07:25:00.672Z,4.72
2024-04-12T07:27:29.950Z,3.80
2024-04-12T07:29:59.726Z,3.80
2024-04-12T07:32:37.573Z,4.57
2024-04-12T07:35:24.648Z,4.40
2024-04-12T07:38:03.706Z,3.67
2024-04-12T07:40:37.360Z,4.13
2024-04-12T07:43:16.604Z,3.55
2024-04-12T07:45:48.148Z,3.58
2024-04-12T07:48:22.336Z,4.25
2024-04-12T07:50:55.646Z,4.13
2024-04-12T07:53:24.414Z,3.92
2024-04-12T07:56:09.239Z,3.92
2024-04-12T07:58:38.146Z,4.50
2024-04-12T08:01:11.084Z,3.50
2024-04-12T08:03:44.452Z,3.72
2024-04-12T08:06:37.873Z,3.00
2024-04-12T08:09:07.685Z,3.53
2024-04-12T08:11:36.938Z,3.15
2024-04-12T08:14:10.141Z,3.13
2024-04-12T08:16:40.735Z,3.35
2024-04-12T08:19:33.368Z,3.50
2024-04-12T08:22:03.578Z,3.53
2024-04-12T08:24:31.623Z,2.88
2024-04-12T08:27:00.086Z,2.53
2024-04-12T08:29:28.197Z,2.67
2024-04-12T08:32:05.844Z,2.80
2024-04-12T08:34:35.143Z,2.55
2024-04-12T08:37:14.700Z,2.70
2024-04-12T08:39:44.853Z,3.17
2024-04-12T08:42:17.647Z,2.85
2024-04-12T08:44:47.741Z,3.00
2024-04-12T08:47:29.419Z,3.58
2024-04-12T08:50:14.740Z,3.22
2024-04-12T08:52:49.568Z,2.70
2024-04-12T08:55:22.312Z,2.53
2024-04-12T08:57:58.752Z,3.13
2024-04-12T09:00:34.547Z,3.38
2024-04-12T09:03:26.079Z,3.20
2024-04-12T09:05:55.065Z,2.83
2024-04-12T09:08:33.043Z,2.97
2024-04-12T09:11:08.336Z,2.55
2024-04-12T09:13:40.654Z,2.63
2024-04-12T09:16:19.938Z,2.88
2024-04-12T09:18:52.877Z,2.78
2024-04-12T09:21:38.140Z,2.90
2024-04-12T09:24:12.010Z,2.88
2024-04-12T09:26:57.519Z,2.60
2024-04-12T09:29:31.045Z,2.80
2024-04-12T09:32:19.363Z,2.72
2024-04-12T09:34:57.910Z,3.00
2024-04-12T09:37:31.612Z,2.97
2024-04-12T09:40:01.073Z,3.22
2024-04-12T09:42:46.705Z,2.97
2024-04-12T09:45:29.639Z,3.28
2024-04-12T09:48:18.030Z,3.15
2024-04-12T09:51:05.855Z,3.10
2024-04-12T09:53:52.612Z,2.58
2024-04-12T09:56:40.181Z,2.83
2024-04-12T09:59:50.285Z,2.80
2024-04-12T10:02:40.589Z,2.50
2024-04-12T10:05:31.694Z,2.63
2024-04-12T10:08:28.997Z,2.95
2024-04-12T10:11:18.615Z,2.70
2024-04-12T10:14:07.869Z,2.33
2024-04-12T10:17:06.574Z,2.40
2024-04-12T10:19:53.534Z,2.65
2024-04-12T10:22:44.896Z,2.28
2024-04-12T10:25:33.474Z,2.30
2024-04-12T10:28:24.741Z,2.50
2024-04-12T10:31:11.904Z,2.92
2024-04-12T10:34:04.905Z,2.60
2024-04-12T10:36:52.593Z,3.10
2024-04-12T10:39:31.780Z,2.65
2024-04-12T10:42:06.843Z,2.70
2024-04-12T10:44:35.211Z,3.00
2024-04-12T10:47:06.074Z,3.22
2024-04-12T10:49:34.642Z,3.20
2024-04-12T10:52:05.413Z,3.33
2024-04-12T10:54:34.166Z,3.25
2024-04-12T10:57:07.802Z,3.45
2024-04-12T10:59:36.856Z,3.50
2024-04-12T11:02:05.508Z,3.25
2024-04-12T11:04:54.458Z,3.08
2024-04-12T11:07:24.858Z,3.30
2024-04-12T11:10:15.787Z,3.10
2024-04-12T11:12:52.290Z,3.17
2024-04-12T11:15:23.388Z,2.80
2024-04-12T11:18:11.481Z,2.60
2024-04-12T11:21:18.114Z,2.17
2024-04-12T11:24:21.717Z,2.00
2024-04-12T11:27:08.383Z,2.50
2024-04-12T11:29:58.453Z,2.17
2024-04-12T11:32:26.719Z,2.28
2024-04-12T11:34:57.079Z,2.22
2024-04-12T11:37:26.305Z,2.40
2024-04-12T11:39:55.038Z,2.28
2024-04-12T11:42:24.938Z,2.33
2024-04-12T11:44:55.459Z,2.17
2024-04-12T11:47:25.280Z,2.63
2024-04-12T11:49:59.455Z,2.63
2024-04-12T11:52:27.868Z,2.28
2024-04-12T11:54:57.745Z,2.30
2024-04-12T11:57:31.406Z,2.25
2024-04-12T12:00:01.245Z,2.10
2024-04-12T12:02:45.916Z,2.13
2024-04-12T12:05:19.141Z,2.00
2024-04-12T12:07:48.621Z,2.45
2024-04-12T12:10:17.430Z,2.78
2024-04-12T12:12:45.662Z,2.13
2024-04-12T12:15:16.244Z,2.30
2024-04-12T12:17:44.528Z,2.10
2024-04-12T12:20:19.606Z,2.10
2024-04-12T12:22:51.365Z,2.17
2024-04-12T12:25:19.985Z,2.13
2024-04-12T12:27:47.998Z,2.03
2024-04-12T12:30:16.514Z,2.25
2024-04-12T12:32:47.754Z,2.20
2024-04-12T12:35:20.524Z,2.70
2024-04-12T12:37:50.011Z,2.55
2024-04-12T12:40:25.243Z,2.60
2024-04-12T12:43:01.609Z,2.88
2024-04-12T12:45:30.034Z,2.97
2024-04-12T12:47:59.411Z,2.60
2024-04-12T12:50:27.856Z,2.60
2024-04-12T12:52:56.955Z,2.63
2024-04-12T12:55:25.411Z,2.95
2024-04-12T12:58:11.124Z,2.88
2024-04-12T13:00:46.360Z,2.38
2024-04-12T13:03:27.109Z,2.50
2024-04-12T13:05:57.297Z,2.75
2024-04-12T13:08:27.011Z,2.30
2024-04-12T13:10:56.508Z,2.67
2024-04-12T13:13:25.333Z,2.78
2024-04-12T13:15:57.680Z,2.65
2024-04-12T13:18:28.995Z,2.60
2024-04-12T13:20:58.950Z,3.45
2024-04-12T13:23:28.182Z,3.70
2024-04-12T13:25:57.015Z,3.65
2024-04-12T13:28:25.446Z,2.80
2024-04-12T13:30:54.396Z,3.00
2024-04-12T13:33:22.562Z,2.45
2024-04-12T13:35:53.861Z,2.53
2024-04-12T13:38:22.172Z,3.10
2024-04-12T13:40:56.160Z,3.22
2024-04-12T13:43:26.778Z,2.67
2024-04-12T13:46:13.670Z,2.55
2024-04-12T13:49:00.196Z,2.40
2024-04-12T13:51:31.477Z,2.30
2024-04-12T13:53:59.825Z,2.30
2024-04-12T13:56:29.875Z,2.65
2024-04-12T13:59:12.109Z,2.30
2024-04-12T14:01:42.065Z,1.98
2024-04-12T14:04:19.644Z,1.98
2024-04-12T14:06:48.987Z,1.80
2024-04-12T14:09:24.954Z,2.00
2024-04-12T14:11:53.843Z,2.13
2024-04-12T14:14:24.599Z,1.90
2024-04-12T14:16:53.704Z,2.78
2024-04-12T14:19:22.543Z,2.28
2024-04-12T14:21:53.249Z,2.70
2024-04-12T14:24:42.207Z,2.10
2024-04-12T14:27:12.769Z,2.25
2024-04-12T14:29:41.440Z,2.17
2024-04-12T14:32:13.150Z,1.85
2024-04-12T14:34:46.833Z,2.03
2024-04-12T14:37:22.878Z,2.20
2024-04-12T14:39:52.222Z,1.90
2024-04-12T14:42:22.232Z,1.65
2024-04-12T14:44:50.614Z,1.80
2024-04-12T14:47:19.238Z,2.00
2024-04-12T14:49:49.295Z,1.65
2024-04-12T14:52:18.870Z,2.00
2024-04-12T14:54:47.763Z,2.00
2024-04-12T14:57:16.159Z,2.03
2024-04-12T14:59:47.230Z,1.90
2024-04-12T15:02:16.130Z,1.90
2024-04-12T15:05:02.857Z,1.90
2024-04-12T15:07:49.911Z,1.95
2024-04-12T15:10:37.133Z,1.88
2024-04-12T15:13:24.075Z,1.85
2024-04-12T15:16:10.655Z,1.95
2024-04-12T15:18:58.838Z,2.00
2024-04-12T15:21:46.729Z,1.75
2024-04-12T15:24:33.952Z,1.98
2024-04-12T15:27:20.870Z,2.08
2024-04-12T15:30:08.331Z,2.20
2024-04-12T15:32:55.024Z,1.90
2024-04-12T15:35:42.008Z,1.90
2024-04-12T15:38:28.652Z,2.00
2024-04-12T15:41:15.624Z,1.90
2024-04-12T15:44:02.028Z,1.48
2024-04-12T15:46:49.219Z,1.88
2024-04-12T15:49:25.765Z,1.63
2024-04-12T15:51:54.327Z,1.70
2024-04-12T15:54:27.866Z,1.55
2024-04-12T15:57:15.317Z,1.67
2024-04-12T16:00:01.999Z,1.70
2024-04-12T16:02:56.885Z,2.20
2024-04-12T16:05:43.632Z,1.80
2024-04-12T16:08:30.925Z,1.85
2024-04-12T16:10:59.475Z,2.22
2024-04-12T16:13:28.905Z,1.95
2024-04-12T16:15:57.253Z,2.08
2024-04-12T16:18:26.230Z,2.30
2024-04-12T16:20:54.488Z,2.40
2024-04-12T16:23:23.110Z,2.38
2024-04-12T16:25:58.123Z,2.20
2024-04-12T16:28:33.477Z,2.30
2024-04-12T16:31:06.551Z,2.35
2024-04-12T16:33:36.268Z,3.15
2024-04-12T16:36:05.257Z,2.75
2024-04-12T16:38:35.156Z,2.42
2024-04-12T16:41:04.813Z,2.72
2024-04-12T16:43:34.275Z,2.80
2024-04-12T16:46:02.959Z,2.92
2024-04-12T16:48:32.436Z,2.45
2024-04-12T16:51:01.568Z,2.85
2024-04-12T16:53:33.683Z,2.67
2024-04-12T16:56:02.094Z,2.70
2024-04-12T16:58:30.753Z,2.78
2024-04-12T17:00:59.001Z,2.83
2024-04-12T17:03:27.976Z,2.50
2024-04-12T17:05:56.300Z,3.08
2024-04-12T17:08:24.796Z,2.80
2024-04-12T17:10:55.695Z,2.90
2024-04-12T17:13:24.424Z,2.90
2024-04-12T17:15:53.498Z,2.85
2024-04-12T17:18:23.116Z,3.40
2024-04-12T17:20:55.976Z,3.55
2024-04-12T17:23:24.525Z,3.35
2024-04-12T17:25:52.748Z,3.47
2024-04-12T17:28:21.144Z,3.80
2024-04-12T17:30:57.774Z,3.95
2024-04-12T17:33:29.508Z,3.60
2024-04-12T17:35:58.659Z,3.38
2024-04-12T17:38:30.005Z,3.60
2024-04-12T17:40:58.791Z,4.05
2024-04-12T17:43:27.250Z,3.78
2024-04-12T17:45:55.308Z,4.38
2024-04-12T17:48:23.882Z,4.07
2024-04-12T17:51:01.394Z,4.05
2024-04-12T17:53:32.992Z,4.25
2024-04-12T17:56:01.350Z,4.55
2024-04-12T17:58:31.411Z,4.63
2024-04-12T18:01:07.077Z,4.65
2024-04-12T18:03:36.567Z,4.78
2024-04-12T18:06:05.129Z,4.63
2024-04-12T18:08:33.845Z,4.43
2024-04-12T18:11:04.220Z,4.50
2024-04-12T18:13:33.298Z,5.22
2024-04-12T18:16:03.075Z,4.95
2024-04-12T18:18:31.823Z,4.78
2024-04-12T18:21:07.456Z,4.78
2024-04-12T18:23:36.788Z,4.30
2024-04-12T18:26:05.180Z,4.60
2024-04-12T18:28:34.181Z,4.75
2024-04-12T18:31:07.853Z,4.68
2024-04-12T18:33:37.345Z,4.82
2024-04-12T18:36:22.506Z,4.78
2024-04-12T18:39:11.770Z,5.00
2024-04-12T18:42:00.689Z,5.25
2024-04-12T18:44:48.480Z,4.75
2024-04-12T18:47:16.589Z,5.00
2024-04-12T18:49:45.567Z,4.88
2024-04-12T18:52:15.307Z,5.40
2024-04-12T18:54:44.021Z,5.18
2024-04-12T18:57:12.884Z,6.32
2024-04-12T18:59:41.274Z,5.90
2024-04-12T19:02:09.327Z,6.30
2024-04-12T19:04:37.733Z,6.18
2024-04-12T19:07:06.633Z,6.13
2024-04-12T19:09:35.096Z,6.13
2024-04-12T19:12:04.120Z,6.43
2024-04-12T19:14:32.602Z,6.47
2024-04-12T19:17:00.638Z,5.68
2024-04-12T19:19:29.368Z,6.70
2024-04-12T19:21:57.455Z,6.50
2024-04-12T19:24:26.174Z,6.78
2024-04-12T19:26:55.597Z,6.90
2024-04-12T19:29:25.740Z,6.60
2024-04-12T19:31:55.660Z,7.32
2024-04-12T19:34:23.911Z,7.25
2024-04-12T19:36:52.338Z,6.90
2024-04-12T19:39:20.623Z,6.47
2024-04-12T19:41:49.025Z,7.18
2024-04-12T19:44:17.783Z,7.00
2024-04-12T19:46:46.649Z,7.28
2024-04-12T19:49:14.989Z,7.35
2024-04-12T19:51:45.474Z,7.50
2024-04-12T19:54:13.983Z,7.70
2024-04-12T19:56:43.139Z,8.07
2024-04-12T19:59:11.206Z,8.57
2024-04-12T20:01:40.510Z,8.75
2024-04-12T20:04:08.587Z,8.15
2024-04-12T20:06:45.258Z,8.00
2024-04-12T20:09:13.436Z,8.75
2024-04-12T20:11:43.037Z,8.80
2024-04-12T20:14:13.493Z,8.85
2024-04-12T20:16:42.050Z,8.38
2024-04-12T20:19:11.152Z,9.05
2024-04-12T20:21:40.358Z,8.45
2024-04-12T20:24:16.074Z,8.63
2024-04-12T20:26:47.548Z,8.98
2024-04-12T20:29:18.136Z,8.88
2024-04-12T20:32:14.147Z,9.73
2024-04-12T20:34:49.967Z,8.70
2024-04-12T20:37:20.562Z,9.32
2024-04-12T20:39:48.631Z,9.70
2024-04-12T20:42:17.949Z,10.02
2024-04-12T20:44:45.994Z,9.38
2024-04-12T20:47:17.733Z,10.27
2024-04-12T20:49:49.267Z,9.70
2024-04-12T20:52:20.960Z,10.80
2024-04-12T20:54:50.983Z,10.23
2024-04-12T20:57:19.667Z,10.77
2024-04-12T20:59:49.617Z,10.95
2024-04-12T21:02:20.674Z,10.52
2024-04-12T21:04:51.403Z,11.18
2024-04-12T21:07:20.705Z,10.30
2024-04-12T21:09:48.860Z,10.95
2024-04-12T21:12:17.279Z,11.07
2024-04-12T21:14:45.331Z,10.70
2024-04-12T21:17:14.524Z,9.90
2024-04-12T21:19:42.544Z,9.88
2024-04-12T21:22:11.968Z,10.48
2024-04-12T21:24:40.727Z,10.27
2024-04-12T21:27:09.132Z,10.27
2024-04-12T21:29:37.132Z,9.90
2024-04-12T21:32:06.135Z,10.50
2024-04-12T21:34:35.421Z,10.77
2024-04-12T21:37:05.462Z,11.32
2024-04-12T21:39:33.970Z,11.15
2024-04-12T21:42:02.439Z,10.43
2024-04-12T21:44:31.437Z,10.15
2024-04-12T21:47:00.052Z,10.43
2024-04-12T21:49:28.068Z,10.40
2024-04-12T21:51:58.819Z,10.75
2024-04-12T21:54:26.943Z,10.40
2024-04-12T21:56:56.701Z,11.13
2024-04-12T21:59:25.595Z,11.82
2024-04-12T22:01:54.068Z,12.35
2024-04-12T22:04:23.241Z,11.93
2024-04-12T22:06:53.899Z,12.00
2024-04-12T22:09:22.051Z,12.43
2024-04-12T22:11:50.646Z,12.65
2024-04-12T22:14:18.714Z,12.93
2024-04-12T22:16:47.175Z,12.63
2024-04-12T22:19:15.190Z,13.90
2024-04-12T22:21:43.571Z,13.75
2024-04-12T22:24:11.739Z,14.18
2024-04-12T22:26:45.962Z,14.00
2024-04-12T22:29:15.237Z,13.82
2024-04-12T22:31:44.823Z,12.40
2024-04-12T22:34:15.357Z,12.45
2024-04-12T22:36:43.834Z,12.95
2024-04-12T22:39:11.847Z,12.00
2024-04-12T22:41:40.292Z,12.63
2024-04-12T22:44:08.317Z,12.38
2024-04-12T22:46:39.739Z,12.25
2024-04-12T22:49:08.043Z,11.90
2024-04-12T22:51:36.815Z,12.02
2024-04-12T22:54:05.795Z,12.38
2024-04-12T22:56:34.225Z,11.68
2024-04-12T22:59:02.836Z,11.40
2024-04-12T23:01:31.252Z,11.48
2024-04-12T23:03:59.385Z,12.38
2024-04-12T23:06:28.850Z,11.25
2024-04-12T23:08:56.942Z,12.68
2024-04-12T23:11:25.373Z,11.70
2024-04-12T23:13:53.607Z,12.05
2024-04-12T23:16:21.936Z,11.63
2024-04-12T23:18:52.550Z,12.02
2024-04-12T23:21:21.804Z,11.02
2024-04-12T23:23:50.153Z,12.00
2024-04-12T23:26:18.586Z,11.48
2024-04-12T23:28:47.710Z,11.75
2024-04-12T23:31:16.281Z,11.95
2024-04-12T23:33:48.387Z,11.18
2024-04-12T23:36:17.203Z,10.43
2024-04-12T23:38:45.242Z,12.05
2024-04-12T23:41:13.569Z,10.82
2024-04-12T23:43:41.589Z,10.27
2024-04-12T23:46:10.332Z,10.88
2024-04-12T23:48:39.982Z,11.57
2024-04-12T23:51:08.429Z,11.02
2024-04-12T23:53:36.476Z,11.05
2024-04-12T23:56:05.042Z,10.73
2024-04-12T23:58:32.994Z,10.70
